createdAt,value
2022-09-24T00:01:35.591Z,61.71
2022-09-24T00:04:08.324Z,61.87
2022-09-24T00:06:48.295Z,61.87
2022-09-24T00:09:17.225Z,61.00
2022-09-24T00:11:45.539Z,61.60
2022-09-24T00:14:13.461Z,61.83
2022-09-24T00:16:41.322Z,61.78
2022-09-24T00:19:08.901Z,61.67
2022-09-24T00:21:36.921Z,61.76
2022-09-24T00:24:09.197Z,60.82
2022-09-24T00:26:51.883Z,61.16
2022-09-24T00:29:24.199Z,61.76
2022-09-24T00:31:52.456Z,61.40
2022-09-24T00:34:20.166Z,61.70
2022-09-24T00:36:48.381Z,61.29
2022-09-24T00:39:15.978Z,60.84
2022-09-24T00:41:48.021Z,60.74
2022-09-24T00:44:40.843Z,60.63
2022-09-24T00:47:37.366Z,61.43
2022-09-24T00:50:06.336Z,61.59
2022-09-24T00:52:39.706Z,61.92
2022-09-24T00:55:07.576Z,61.53
2022-09-24T00:57:35.449Z,61.90
2022-09-24T01:00:04.100Z,62.58
2022-09-24T01:02:31.827Z,62.71
2022-09-24T01:05:00.295Z,62.21
2022-09-24T01:07:27.709Z,62.35
2022-09-24T01:09:55.046Z,62.25
2022-09-24T01:12:47.099Z,62.05
2022-09-24T01:15:26.790Z,62.05
2022-09-24T01:17:59.063Z,62.03
2022-09-24T01:20:59.650Z,61.80
2022-09-24T01:24:05.065Z,61.83
2022-09-24T01:27:08.197Z,62.85
2022-09-24T01:29:54.027Z,62.70
2022-09-24T01:33:07.411Z,62.78
2022-09-24T01:35:37.407Z,62.13
2022-09-24T01:38:19.419Z,62.30
2022-09-24T01:40:47.271Z,62.21
2022-09-24T01:43:15.317Z,62.80
2022-09-24T01:45:42.675Z,62.67
2022-09-24T01:48:10.256Z,62.22
2022-09-24T01:50:54.325Z,62.31
2022-09-24T01:53:25.147Z,62.06
2022-09-24T01:55:57.067Z,62.07
2022-09-24T01:58:36.883Z,61.68
2022-09-24T02:01:08.282Z,61.00
2022-09-24T02:03:37.577Z,61.23
2022-09-24T02:06:13.272Z,61.73
2022-09-24T02:08:44.079Z,61.87
2022-09-24T02:11:14.059Z,62.06
2022-09-24T02:13:47.899Z,61.61
2022-09-24T02:16:16.493Z,61.47
2022-09-24T02:18:47.058Z,60.30
2022-09-24T02:21:15.679Z,59.73
2022-09-24T02:23:49.552Z,59.72
2022-09-24T02:26:17.162Z,59.49
2022-09-24T02:28:45.578Z,60.20
2022-09-24T02:31:20.890Z,59.83
2022-09-24T02:34:08.767Z,59.94
2022-09-24T02:36:36.212Z,59.42
2022-09-24T02:39:03.813Z,59.89
2022-09-24T02:41:31.476Z,59.46
2022-09-24T02:43:58.802Z,59.94
2022-09-24T02:46:26.425Z,59.46
2022-09-24T02:48:53.907Z,58.96
2022-09-24T02:51:21.904Z,59.94
2022-09-24T02:53:50.118Z,59.96
2022-09-24T02:56:17.502Z,60.02
2022-09-24T02:58:44.798Z,59.92
2022-09-24T03:01:12.539Z,60.01
2022-09-24T03:03:39.884Z,60.55
2022-09-24T03:06:07.270Z,60.69
2022-09-24T03:08:35.236Z,60.82
2022-09-24T03:11:02.588Z,60.61
2022-09-24T03:13:29.971Z,60.37
2022-09-24T03:15:57.635Z,60.71
2022-09-24T03:18:25.134Z,60.54
2022-09-24T03:21:00.037Z,60.44
2022-09-24T03:23:27.743Z,60.41
2022-09-24T03:25:55.272Z,60.75
2022-09-24T03:28:22.763Z,60.97
2022-09-24T03:31:02.645Z,59.43
2022-09-24T03:33:59.591Z,60.47
2022-09-24T03:36:27.315Z,59.71
2022-09-24T03:38:56.246Z,60.72
2022-09-24T03:41:30.269Z,61.29
2022-09-24T03:43:57.841Z,61.75
2022-09-24T03:46:30.322Z,61.32
2022-09-24T03:48:59.266Z,60.70
2022-09-24T03:51:26.598Z,60.39
2022-09-24T03:53:54.095Z,59.35
2022-09-24T03:56:21.732Z,59.43
2022-09-24T03:58:49.044Z,60.02
2022-09-24T04:01:20.610Z,60.65
2022-09-24T04:03:49.066Z,60.07
2022-09-24T04:06:18.650Z,60.02
2022-09-24T04:08:48.483Z,60.07
2022-09-24T04:11:15.813Z,59.60
2022-09-24T04:13:43.225Z,59.31
2022-09-24T04:16:10.928Z,59.69
2022-09-24T04:18:39.633Z,60.06
2022-09-24T04:21:07.108Z,59.66
2022-09-24T04:23:34.687Z,59.93
2022-09-24T04:26:02.307Z,60.32
2022-09-24T04:28:30.321Z,59.47
2022-09-24T04:30:58.171Z,59.50
2022-09-24T04:33:25.596Z,58.96
2022-09-24T04:35:52.970Z,59.07
2022-09-24T04:38:21.281Z,59.15
2022-09-24T04:40:48.962Z,59.19
2022-09-24T04:43:17.417Z,59.58
2022-09-24T04:45:45.844Z,59.44
2022-09-24T04:48:13.635Z,59.77
2022-09-24T04:50:45.873Z,60.60
2022-09-24T04:53:14.838Z,59.41
2022-09-24T04:55:42.289Z,59.96
2022-09-24T04:58:09.728Z,60.62
2022-09-24T05:00:37.602Z,59.91
2022-09-24T05:03:05.196Z,60.12
2022-09-24T05:05:33.020Z,59.66
2022-09-24T05:08:01.507Z,60.11
2022-09-24T05:10:29.660Z,60.58
2022-09-24T05:12:56.978Z,60.16
2022-09-24T05:15:24.604Z,59.45
2022-09-24T05:17:51.918Z,59.21
2022-09-24T05:20:19.246Z,60.14
2022-09-24T05:22:47.926Z,59.82
2022-09-24T05:25:15.901Z,58.87
2022-09-24T05:27:47.246Z,59.16
2022-09-24T05:30:15.227Z,58.21
2022-09-24T05:32:42.622Z,57.71
2022-09-24T05:35:09.980Z,57.48
2022-09-24T05:37:38.317Z,57.48
2022-09-24T05:40:24.694Z,57.60
2022-09-24T05:42:52.374Z,58.31
2022-09-24T05:45:19.917Z,59.06
2022-09-24T05:47:47.265Z,57.84
2022-09-24T05:50:14.930Z,58.07
2022-09-24T05:52:42.798Z,57.85
2022-09-24T05:55:10.515Z,57.53
2022-09-24T05:57:38.254Z,57.96
2022-09-24T06:00:06.938Z,57.74
2022-09-24T06:02:39.715Z,57.42
2022-09-24T06:05:07.757Z,57.31
2022-09-24T06:07:35.146Z,57.06
2022-09-24T06:10:02.481Z,56.32
2022-09-24T06:12:30.339Z,55.90
2022-09-24T06:14:57.658Z,56.40
2022-09-24T06:17:25.169Z,56.15
2022-09-24T06:19:52.913Z,57.37
2022-09-24T06:22:25.019Z,57.09
2022-09-24T06:24:55.274Z,57.06
2022-09-24T06:27:22.628Z,58.09
2022-09-24T06:29:50.058Z,57.01
2022-09-24T06:32:19.805Z,56.55
2022-09-24T06:34:47.538Z,55.66
2022-09-24T06:37:14.909Z,55.67
2022-09-24T06:39:42.682Z,55.31
2022-09-24T06:42:10.003Z,56.11
2022-09-24T06:44:37.340Z,58.01
2022-09-24T06:47:04.964Z,56.81
2022-09-24T06:49:34.298Z,53.91
2022-09-24T06:52:02.472Z,55.38
2022-09-24T06:54:30.045Z,55.01
2022-09-24T06:56:57.364Z,53.85
2022-09-24T06:59:24.798Z,55.84
2022-09-24T07:01:52.547Z,55.48
2022-09-24T07:04:20.108Z,55.84
2022-09-24T07:07:06.037Z,56.73
2022-09-24T07:09:33.702Z,55.65
2022-09-24T07:12:05.308Z,56.83
2022-09-24T07:14:32.622Z,56.73
2022-09-24T07:17:00.241Z,57.48
2022-09-24T07:19:27.570Z,56.17
2022-09-24T07:21:54.886Z,54.51
2022-09-24T07:24:22.488Z,53.79
2022-09-24T07:26:49.808Z,53.54
2022-09-24T07:29:17.193Z,56.68
2022-09-24T07:31:44.827Z,57.67
2022-09-24T07:34:12.219Z,54.47
2022-09-24T07:36:40.602Z,53.76
2022-09-24T07:39:08.210Z,54.74
2022-09-24T07:41:41.344Z,54.29
2022-09-24T07:44:09.955Z,52.79
2022-09-24T07:46:37.533Z,52.59
2022-09-24T07:49:05.040Z,51.19
2022-09-24T07:51:32.707Z,49.17
2022-09-24T07:54:00.018Z,48.02
2022-09-24T07:56:27.374Z,46.97
2022-09-24T07:58:55.289Z,46.50
2022-09-24T08:01:22.916Z,46.21
2022-09-24T08:03:51.774Z,46.18
2022-09-24T08:06:20.104Z,45.47
2022-09-24T08:08:49.578Z,45.15
2022-09-24T08:11:17.426Z,44.05
2022-09-24T08:13:45.244Z,43.93
2022-09-24T08:16:12.980Z,42.34
2022-09-24T08:18:43.478Z,41.97
2022-09-24T08:21:11.945Z,41.05
2022-09-24T08:23:40.136Z,41.30
2022-09-24T08:26:07.849Z,39.09
2022-09-24T08:28:35.263Z,39.60
2022-09-24T08:31:04.301Z,39.03
2022-09-24T08:33:32.285Z,39.49
2022-09-24T08:36:00.103Z,39.47
2022-09-24T08:38:27.438Z,41.47
2022-09-24T08:41:01.054Z,40.56
2022-09-24T08:43:48.646Z,39.62
2022-09-24T08:47:08.120Z,39.18
2022-09-24T08:49:46.020Z,39.41
2022-09-24T08:52:25.713Z,39.05
2022-09-24T08:54:53.067Z,38.77
2022-09-24T08:57:20.693Z,38.92
2022-09-24T08:59:50.770Z,38.92
2022-09-24T09:02:33.188Z,40.08
2022-09-24T09:05:19.047Z,39.49
2022-09-24T09:07:55.792Z,40.51
2022-09-24T09:10:29.115Z,40.15
2022-09-24T09:13:24.290Z,39.77
2022-09-24T09:16:22.394Z,39.41
2022-09-24T09:18:51.107Z,39.11
2022-09-24T09:21:39.405Z,39.20
2022-09-24T09:24:06.893Z,39.62
2022-09-24T09:26:34.973Z,39.48
2022-09-24T09:29:02.401Z,39.91
2022-09-24T09:31:57.640Z,39.58
2022-09-24T09:34:43.965Z,39.50
2022-09-24T09:37:11.097Z,39.27
2022-09-24T09:39:56.234Z,38.99
2022-09-24T09:42:36.101Z,38.35
2022-09-24T09:45:09.301Z,38.28
2022-09-24T09:47:58.655Z,39.06
2022-09-24T09:50:45.602Z,38.79
2022-09-24T09:53:28.313Z,39.58
2022-09-24T09:55:57.352Z,39.18
2022-09-24T09:58:28.420Z,38.39
2022-09-24T10:01:10.427Z,38.17
2022-09-24T10:03:44.195Z,39.01
2022-09-24T10:06:13.087Z,38.78
2022-09-24T10:08:40.708Z,38.90
2022-09-24T10:11:13.777Z,38.72
2022-09-24T10:13:41.395Z,38.47
2022-09-24T10:16:09.491Z,38.57
2022-09-24T10:18:46.821Z,37.93
2022-09-24T10:21:36.645Z,38.51
2022-09-24T10:24:05.462Z,37.14
2022-09-24T10:26:44.572Z,37.68
2022-09-24T10:29:35.853Z,38.61
2022-09-24T10:32:04.576Z,38.48
2022-09-24T10:34:31.947Z,39.58
2022-09-24T10:37:01.972Z,37.88
2022-09-24T10:39:30.050Z,36.08
2022-09-24T10:41:57.769Z,35.24
2022-09-24T10:44:29.891Z,34.83
2022-09-24T10:47:15.764Z,34.60
2022-09-24T10:49:45.754Z,34.04
2022-09-24T10:52:43.495Z,34.25
2022-09-24T10:55:32.149Z,35.41
2022-09-24T10:58:15.114Z,35.80
2022-09-24T11:00:58.254Z,35.40
2022-09-24T11:03:41.500Z,35.47
2022-09-24T11:06:24.012Z,35.57
2022-09-24T11:09:15.155Z,37.22
2022-09-24T11:12:01.581Z,35.99
2022-09-24T11:14:38.185Z,35.06
2022-09-24T11:17:05.311Z,35.84
2022-09-24T11:19:35.553Z,35.71
2022-09-24T11:22:03.977Z,35.66
2022-09-24T11:24:58.780Z,35.99
2022-09-24T11:27:38.125Z,35.73
2022-09-24T11:30:25.081Z,35.64
2022-09-24T11:33:26.559Z,35.66
2022-09-24T11:36:08.510Z,35.40
2022-09-24T11:39:01.327Z,36.41
2022-09-24T11:41:50.574Z,36.02
2022-09-24T11:44:45.747Z,35.42
2022-09-24T11:47:47.254Z,35.29
2022-09-24T11:50:27.098Z,35.04
2022-09-24T11:53:09.566Z,34.95
2022-09-24T11:55:53.571Z,34.71
2022-09-24T11:58:37.027Z,35.22
2022-09-24T12:01:21.364Z,36.74
2022-09-24T12:04:03.163Z,35.78
2022-09-24T12:06:36.150Z,35.23
2022-09-24T12:09:32.052Z,35.73
2022-09-24T12:12:21.385Z,35.45
2022-09-24T12:14:51.879Z,35.85
2022-09-24T12:17:31.725Z,35.41
2022-09-24T12:20:06.393Z,34.66
2022-09-24T12:22:33.774Z,34.68
2022-09-24T12:25:01.454Z,34.47
2022-09-24T12:27:34.113Z,34.83
2022-09-24T12:30:33.699Z,34.93
2022-09-24T12:33:09.664Z,34.94
2022-09-24T12:35:47.380Z,34.80
2022-09-24T12:38:20.428Z,36.09
2022-09-24T12:41:23.690Z,35.83
2022-09-24T12:44:00.323Z,34.91
2022-09-24T12:46:44.583Z,35.30
2022-09-24T12:49:27.119Z,35.34
2022-09-24T12:51:59.542Z,35.17
2022-09-24T12:54:33.416Z,35.64
2022-09-24T12:57:26.405Z,35.11
2022-09-24T12:59:58.525Z,35.07
2022-09-24T13:02:33.093Z,35.23
2022-09-24T13:05:04.101Z,35.54
2022-09-24T13:07:39.951Z,35.94
2022-09-24T13:10:16.247Z,35.98
2022-09-24T13:12:44.664Z,35.83
2022-09-24T13:15:32.500Z,35.98
2022-09-24T13:18:10.054Z,35.13
2022-09-24T13:20:38.913Z,34.55
2022-09-24T13:23:16.448Z,34.53
2022-09-24T13:26:07.577Z,34.98
2022-09-24T13:28:48.522Z,34.32
2022-09-24T13:31:22.098Z,34.69
2022-09-24T13:33:51.564Z,33.96
2022-09-24T13:36:38.068Z,34.49
2022-09-24T13:39:18.094Z,34.79
2022-09-24T13:42:15.899Z,34.55
2022-09-24T13:44:44.714Z,34.60
2022-09-24T13:47:27.321Z,35.47
2022-09-24T13:49:56.754Z,35.98
2022-09-24T13:52:48.787Z,35.89
2022-09-24T13:55:21.535Z,34.99
2022-09-24T13:57:49.027Z,36.16
2022-09-24T14:00:19.833Z,36.41
2022-09-24T14:02:56.486Z,36.48
2022-09-24T14:05:23.944Z,36.16
2022-09-24T14:08:07.238Z,36.09
2022-09-24T14:10:36.032Z,37.25
2022-09-24T14:13:13.810Z,36.66
2022-09-24T14:16:02.603Z,36.69
2022-09-24T14:18:30.553Z,36.20
2022-09-24T14:21:04.097Z,36.66
2022-09-24T14:23:35.534Z,36.87
2022-09-24T14:26:03.234Z,36.93
2022-09-24T14:28:32.880Z,37.19
2022-09-24T14:31:00.616Z,36.95
2022-09-24T14:33:30.666Z,37.59
2022-09-24T14:35:58.199Z,36.96
2022-09-24T14:38:35.673Z,37.64
2022-09-24T14:41:18.428Z,37.19
2022-09-24T14:43:48.654Z,37.23
2022-09-24T14:46:23.116Z,37.56
2022-09-24T14:48:52.395Z,37.73
2022-09-24T14:51:37.921Z,37.74
2022-09-24T14:54:28.774Z,37.83
2022-09-24T14:57:08.594Z,39.13
2022-09-24T14:59:37.115Z,38.56
2022-09-24T15:02:15.680Z,38.99
2022-09-24T15:04:48.559Z,38.85
2022-09-24T15:07:18.111Z,38.49
2022-09-24T15:09:49.797Z,38.47
2022-09-24T15:12:21.562Z,38.33
2022-09-24T15:14:58.963Z,39.00
2022-09-24T15:17:31.318Z,39.97
2022-09-24T15:19:59.140Z,39.60
2022-09-24T15:22:27.046Z,39.99
2022-09-24T15:24:58.876Z,39.62
2022-09-24T15:27:32.363Z,39.73
2022-09-24T15:30:00.780Z,40.83
2022-09-24T15:32:30.964Z,41.51
2022-09-24T15:34:58.597Z,41.38
2022-09-24T15:37:26.983Z,40.20
2022-09-24T15:39:57.819Z,40.99
2022-09-24T15:42:26.389Z,41.32
2022-09-24T15:44:56.914Z,41.47
2022-09-24T15:47:25.563Z,42.39
2022-09-24T15:49:52.935Z,42.17
2022-09-24T15:52:29.679Z,41.83
2022-09-24T15:54:58.307Z,42.39
2022-09-24T15:57:28.629Z,42.24
2022-09-24T15:59:55.973Z,43.08
2022-09-24T16:02:25.720Z,42.46
2022-09-24T16:04:53.429Z,42.76
2022-09-24T16:07:20.795Z,43.47
2022-09-24T16:09:48.183Z,44.45
2022-09-24T16:12:16.280Z,44.06
2022-09-24T16:14:43.673Z,45.14
2022-09-24T16:17:11.292Z,44.96
2022-09-24T16:19:38.928Z,45.75
2022-09-24T16:22:06.292Z,46.05
2022-09-24T16:24:33.921Z,46.73
2022-09-24T16:27:01.881Z,46.22
2022-09-24T16:29:29.206Z,46.58
2022-09-24T16:31:56.882Z,47.31
2022-09-24T16:34:25.484Z,47.34
2022-09-24T16:36:52.885Z,47.19
2022-09-24T16:39:20.201Z,47.56
2022-09-24T16:41:48.794Z,47.72
2022-09-24T16:44:16.221Z,48.15
2022-09-24T16:46:44.218Z,48.38
2022-09-24T16:49:12.166Z,48.85
2022-09-24T16:51:39.658Z,48.78
2022-09-24T16:54:07.414Z,49.03
2022-09-24T16:56:35.098Z,49.79
2022-09-24T16:59:02.434Z,49.19
2022-09-24T17:01:29.889Z,49.62
2022-09-24T17:03:58.412Z,49.77
2022-09-24T17:06:27.410Z,50.52
2022-09-24T17:09:13.567Z,51.01
2022-09-24T17:11:41.916Z,51.39
2022-09-24T17:14:10.472Z,51.92
2022-09-24T17:16:38.588Z,51.88
2022-09-24T17:19:07.932Z,51.66
2022-09-24T17:21:36.219Z,51.90
2022-09-24T17:24:03.975Z,51.59
2022-09-24T17:26:31.544Z,52.07
2022-09-24T17:28:59.926Z,51.61
2022-09-24T17:31:27.386Z,52.11
2022-09-24T17:33:59.220Z,51.98
2022-09-24T17:36:26.993Z,52.04
2022-09-24T17:38:56.163Z,51.94
2022-09-24T17:41:23.607Z,52.14
2022-09-24T17:43:51.905Z,52.25
2022-09-24T17:46:24.047Z,52.36
2022-09-24T17:48:52.825Z,53.52
2022-09-24T17:51:22.817Z,52.88
2022-09-24T17:53:53.063Z,53.10
2022-09-24T17:56:22.695Z,54.53
2022-09-24T17:58:50.068Z,54.14
2022-09-24T18:01:19.785Z,53.95
2022-09-24T18:03:52.133Z,53.85
2022-09-24T18:06:20.609Z,53.94
2022-09-24T18:08:48.225Z,54.42
2022-09-24T18:11:17.613Z,54.76
2022-09-24T18:13:45.176Z,53.98
2022-09-24T18:16:14.467Z,54.29
2022-09-24T18:18:42.221Z,53.83
2022-09-24T18:21:11.052Z,54.15
2022-09-24T18:23:39.272Z,55.21
2022-09-24T18:26:29.410Z,54.93
2022-09-24T18:29:01.679Z,54.60
2022-09-24T18:31:29.494Z,55.12
2022-09-24T18:34:05.117Z,54.88
2022-09-24T18:36:33.600Z,54.76
2022-09-24T18:39:01.261Z,55.63
2022-09-24T18:41:29.554Z,54.81
2022-09-24T18:43:58.948Z,56.26
2022-09-24T18:46:28.999Z,54.97
2022-09-24T18:48:57.142Z,55.79
2022-09-24T18:51:34.743Z,55.24
2022-09-24T18:54:03.849Z,55.15
2022-09-24T18:56:31.484Z,55.06
2022-09-24T18:59:00.055Z,54.77
2022-09-24T19:01:27.881Z,55.10
2022-09-24T19:03:55.546Z,55.17
2022-09-24T19:06:22.930Z,55.58
2022-09-24T19:08:50.613Z,55.00
2022-09-24T19:11:18.342Z,54.78
2022-09-24T19:13:53.207Z,55.07
2022-09-24T19:16:23.697Z,55.75
2022-09-24T19:18:52.645Z,55.77
2022-09-24T19:21:20.953Z,55.13
2022-09-24T19:23:49.554Z,56.36
2022-09-24T19:26:18.674Z,55.85
2022-09-24T19:28:46.104Z,55.84
2022-09-24T19:31:20.325Z,56.24
2022-09-24T19:33:48.483Z,56.61
2022-09-24T19:36:17.271Z,55.80
2022-09-24T19:38:44.734Z,56.07
2022-09-24T19:41:21.374Z,55.67
2022-09-24T19:43:52.018Z,56.48
2022-09-24T19:46:20.256Z,56.31
2022-09-24T19:48:48.732Z,56.72
2022-09-24T19:51:19.513Z,56.47
2022-09-24T19:53:47.793Z,55.77
2022-09-24T19:56:16.409Z,56.04
2022-09-24T19:58:47.194Z,56.39
2022-09-24T20:01:17.566Z,57.97
2022-09-24T20:03:45.594Z,57.44
2022-09-24T20:06:15.971Z,57.15
2022-09-24T20:08:43.358Z,56.83
2022-09-24T20:11:14.939Z,57.12
2022-09-24T20:13:46.668Z,57.34
2022-09-24T20:16:15.831Z,57.59
2022-09-24T20:18:43.334Z,57.17
2022-09-24T20:21:12.696Z,57.32
2022-09-24T20:23:40.763Z,57.22
2022-09-24T20:26:28.221Z,59.10
2022-09-24T20:28:56.229Z,57.83
2022-09-24T20:31:23.661Z,58.26
2022-09-24T20:33:52.731Z,57.71
2022-09-24T20:36:24.113Z,58.20
2022-09-24T20:38:52.325Z,58.57
2022-09-24T20:41:21.901Z,57.71
2022-09-24T20:43:49.714Z,58.25
2022-09-24T20:46:19.321Z,58.71
2022-09-24T20:48:47.953Z,58.24
2022-09-24T20:51:17.524Z,58.57
2022-09-24T20:53:45.728Z,58.71
2022-09-24T20:56:13.724Z,57.67
2022-09-24T20:58:41.133Z,57.67
2022-09-24T21:01:09.154Z,58.78
2022-09-24T21:03:45.955Z,58.81
2022-09-24T21:06:14.871Z,59.05
2022-09-24T21:08:43.683Z,58.41
2022-09-24T21:11:12.821Z,58.26
2022-09-24T21:13:41.527Z,58.21
2022-09-24T21:16:10.169Z,58.89
2022-09-24T21:18:40.669Z,58.66
2022-09-24T21:21:11.648Z,58.98
2022-09-24T21:23:39.657Z,58.53
2022-09-24T21:26:10.976Z,59.53
2022-09-24T21:28:38.717Z,59.46
2022-09-24T21:31:07.011Z,60.00
2022-09-24T21:33:34.600Z,59.48
2022-09-24T21:36:06.472Z,59.05
2022-09-24T21:38:33.943Z,58.99
2022-09-24T21:41:03.241Z,59.48
2022-09-24T21:43:34.678Z,59.79
2022-09-24T21:46:05.386Z,59.69
2022-09-24T21:48:33.310Z,59.44
2022-09-24T21:51:08.590Z,60.02
2022-09-24T21:53:36.331Z,59.16
2022-09-24T21:56:03.921Z,59.16
2022-09-24T21:58:31.411Z,59.25
2022-09-24T22:01:04.930Z,59.07
2022-09-24T22:03:33.032Z,59.00
2022-09-24T22:06:03.458Z,58.41
2022-09-24T22:08:31.908Z,59.38
2022-09-24T22:11:01.536Z,58.32
2022-09-24T22:13:28.890Z,59.37
2022-09-24T22:15:57.572Z,59.41
2022-09-24T22:18:26.085Z,58.97
2022-09-24T22:20:53.825Z,58.63
2022-09-24T22:23:21.396Z,59.41
2022-09-24T22:25:57.021Z,59.63
2022-09-24T22:28:25.169Z,59.03
2022-09-24T22:30:53.269Z,58.91
2022-09-24T22:33:39.329Z,58.83
2022-09-24T22:36:06.878Z,59.04
2022-09-24T22:38:34.222Z,59.28
2022-09-24T22:41:05.225Z,59.12
2022-09-24T22:43:32.818Z,60.01
2022-09-24T22:46:01.034Z,59.73
2022-09-24T22:48:28.581Z,59.39
2022-09-24T22:50:56.176Z,59.67
2022-09-24T22:53:23.557Z,60.41
2022-09-24T22:55:52.763Z,60.32
2022-09-24T22:58:20.520Z,60.31
2022-09-24T23:00:47.841Z,60.48
2022-09-24T23:03:15.230Z,59.90
2022-09-24T23:05:43.114Z,60.05
2022-09-24T23:08:10.419Z,59.75
2022-09-24T23:10:37.752Z,60.03
2022-09-24T23:13:05.342Z,60.07
2022-09-24T23:15:32.680Z,59.83
2022-09-24T23:18:00.012Z,59.87
2022-09-24T23:20:27.606Z,59.46
2022-09-24T23:22:55.172Z,59.28
2022-09-24T23:25:22.500Z,60.07
2022-09-24T23:27:50.064Z,59.92
2022-09-24T23:30:17.416Z,60.07
2022-09-24T23:32:44.767Z,60.63
2022-09-24T23:35:12.354Z,60.36
2022-09-24T23:37:39.663Z,60.69
2022-09-24T23:40:07.771Z,60.23
2022-09-24T23:42:35.387Z,60.56
2022-09-24T23:45:02.882Z,60.65
2022-09-24T23:47:35.313Z,60.60
2022-09-24T23:50:03.885Z,60.69
2022-09-24T23:52:31.225Z,60.33
2022-09-24T23:54:58.574Z,60.09
2022-09-24T23:57:26.183Z,60.39
2022-09-24T23:59:53.531Z,61.01
